Time;durP1;ratioP1;P1;durP2;ratioP2;P2;SDS_P1;SDS_P2;PMS_P1;PMS_P2;Temp;Humidity;BMP_temperature;BMP_pressure;BME280_temperature;BME280_humidity;BME280_pressure;Samples;Min_cycle;Max_cycle;Signal;HPM_P1;HPM_P2
2022/07/23 00:00:59;;;;;;;9.73;8.93;;;;;;;23.14;92.38;96709.25;5056725;28;20308;-56
2022/07/23 00:03:26;;;;;;;9.43;8.57;;;;;;;23.02;95.43;96713.72;5056420;28;20543;-56
2022/07/23 00:05:53;;;;;;;9.48;8.55;;;;;;;22.92;91.67;96713.38;5056615;28;20276;-57
2022/07/23 00:08:19;;;;;;;8.88;8.18;;;;;;;22.87;94.09;96715.91;5056089;28;20199;-57
2022/07/23 00:10:46;;;;;;;9.13;8.32;;;;;;;22.80;94.35;96710.56;5056369;28;20207;-59
2022/07/23 00:13:13;;;;;;;9.75;8.88;;;;;;;22.75;91.30;96708.50;5056793;28;20239;-57
2022/07/23 00:15:40;;;;;;;9.68;8.75;;;;;;;22.74;93.32;96706.03;5046700;28;20211;-57
2022/07/23 00:18:07;;;;;;;9.90;9.18;;;;;;;22.64;92.86;96700.25;5050280;28;20320;-55
2022/07/23 00:20:34;;;;;;;10.00;9.10;;;;;;;22.60;88.31;96678.28;5055995;28;20733;-58
2022/07/23 00:23:00;;;;;;;9.45;8.75;;;;;;;22.60;87.89;96672.91;5056751;28;20269;-58
2022/07/23 00:25:27;;;;;;;8.88;8.07;;;;;;;22.67;87.13;96668.31;5052786;28;20235;-57
2022/07/23 00:27:54;;;;;;;9.07;8.25;;;;;;;22.70;87.13;96667.91;5053526;28;20207;-59
2022/07/23 00:30:21;;;;;;;8.18;7.57;;;;;;;22.73;85.50;96672.84;5057543;28;20207;-57
2022/07/23 00:32:50;;;;;;;8.15;7.55;;;;;;;22.75;82.58;96672.63;5057286;28;20227;-58
2022/07/23 00:35:19;;;;;;;9.32;8.20;;;;;;;22.75;81.54;96659.97;5058423;28;20226;-57
2022/07/23 00:37:45;;;;;;;8.43;7.72;;;;;;;22.77;81.64;96657.06;5059933;28;20254;-58
2022/07/23 00:40:12;;;;;;;9.10;8.27;;;;;;;22.78;81.01;96651.44;5063210;28;20265;-58
2022/07/23 00:42:39;;;;;;;8.20;7.50;;;;;;;22.78;82.81;96648.75;5063826;28;20269;-58
2022/07/23 00:45:06;;;;;;;8.55;7.75;;;;;;;22.77;85.17;96647.13;5063184;28;20234;-56
2022/07/23 00:47:33;;;;;;;9.00;8.18;;;;;;;22.69;87.94;96644.69;5048809;28;20288;-56
2022/07/23 00:50:01;;;;;;;9.25;8.40;;;;;;;22.62;88.11;96648.44;5061434;28;20207;-57
2022/07/23 00:52:28;;;;;;;8.50;7.78;;;;;;;22.53;91.42;96639.78;5065312;28;20202;-57
2022/07/23 00:54:54;;;;;;;9.27;8.48;;;;;;;22.47;92.70;96626.34;5071172;28;20278;-54
2022/07/23 00:57:21;;;;;;;9.73;8.88;;;;;;;22.48;93.55;96617.22;5066927;28;20207;-55
2022/07/23 00:59:48;;;;;;;9.75;8.43;;;;;;;22.43;93.42;96604.41;5057350;28;20207;-56
2022/07/23 01:02:15;;;;;;;9.43;8.63;;;;;;;22.32;95.31;96594.31;5057185;28;20605;-59
2022/07/23 01:04:41;;;;;;;9.05;8.40;;;;;;;22.22;95.53;96583.19;5057712;28;20230;-58
2022/07/23 01:07:09;;;;;;;10.15;9.15;;;;;;;22.18;95.96;96595.44;5055279;28;20207;-58
2022/07/23 01:09:36;;;;;;;8.85;8.23;;;;;;;22.19;95.27;96602.47;5055498;28;20207;-59
2022/07/23 01:12:03;;;;;;;9.77;8.98;;;;;;;22.20;94.26;96612.22;5054870;28;20581;-59
2022/07/23 01:14:30;;;;;;;9.13;8.40;;;;;;;22.18;95.38;96590.06;5054673;28;20631;-59
2022/07/23 01:16:57;;;;;;;9.40;8.68;;;;;;;22.15;95.93;96598.56;5055252;28;20242;-59
2022/07/23 01:19:23;;;;;;;9.02;8.35;;;;;;;22.08;95.81;96601.31;5055046;28;20259;-57
2022/07/23 01:21:51;;;;;;;9.73;8.32;;;;;;;21.91;98.16;96593.94;5054891;28;20210;-59
2022/07/23 01:24:20;;;;;;;9.70;8.93;;;;;;;21.88;100.00;96599.72;5055430;28;20276;-56
2022/07/23 01:26:47;;;;;;;9.60;8.80;;;;;;;21.85;99.49;96598.31;5054620;28;20722;-55
2022/07/23 01:29:14;;;;;;;10.00;9.13;;;;;;;21.73;100.00;96600.81;5055345;28;20268;-57
2022/07/23 01:31:43;;;;;;;9.48;8.73;;;;;;;21.62;100.00;96582.66;5054241;28;20246;-58
2022/07/23 01:34:10;;;;;;;9.57;8.77;;;;;;;21.58;100.00;96576.03;5056320;28;20234;-59
2022/07/23 01:36:37;;;;;;;9.93;8.98;;;;;;;21.60;100.00;96581.22;5057139;28;20217;-58
2022/07/23 01:39:05;;;;;;;10.48;9.57;;;;;;;21.65;100.00;96574.16;5054793;28;20636;-58
2022/07/23 01:41:33;;;;;;;10.13;9.23;;;;;;;21.72;97.01;96587.56;5055995;28;20207;-59
2022/07/23 01:44:01;;;;;;;9.90;9.15;;;;;;;21.74;97.67;96591.72;5056857;28;20214;-57
2022/07/23 01:46:28;;;;;;;9.77;8.88;;;;;;;21.75;99.03;96614.88;5056408;28;20507;-58
2022/07/23 01:48:54;;;;;;;10.60;9.77;;;;;;;21.81;98.41;96618.59;5054543;28;20284;-58
2022/07/23 01:51:21;;;;;;;9.13;8.43;;;;;;;21.84;98.31;96608.25;5054317;28;20212;-61
2022/07/23 01:53:48;;;;;;;10.65;9.63;;;;;;;21.84;98.78;96602.03;5054528;28;20221;-56
2022/07/23 01:56:15;;;;;;;10.07;9.27;;;;;;;21.80;100.00;96590.03;5054439;28;20230;-60
2022/07/23 01:58:43;;;;;;;9.75;8.95;;;;;;;21.81;99.44;96586.31;5054111;28;20237;-58
2022/07/23 02:01:09;;;;;;;9.60;8.70;;;;;;;21.77;99.36;96585.91;5059814;28;20207;-59
2022/07/23 02:03:36;;;;;;;9.85;8.98;;;;;;;21.75;98.40;96592.56;5060662;28;20206;-58
2022/07/23 02:06:03;;;;;;;10.20;9.27;;;;;;;21.76;98.53;96591.50;5060526;28;20580;-59
2022/07/23 02:08:30;;;;;;;9.60;8.80;;;;;;;21.77;98.88;96596.66;5060872;28;20199;-59
2022/07/23 02:10:56;;;;;;;9.80;8.68;;;;;;;21.75;99.68;96595.25;5060710;28;20653;-56
2022/07/23 02:13:23;;;;;;;9.30;8.50;;;;;;;21.78;98.88;96597.50;5060451;28;20217;-56
2022/07/23 02:15:51;;;;;;;10.00;9.20;;;;;;;21.71;100.00;96594.84;5061132;28;20217;-56
2022/07/23 02:18:17;;;;;;;10.20;9.30;;;;;;;21.72;100.00;96593.78;5061150;28;20261;-56
2022/07/23 02:20:44;;;;;;;10.05;9.23;;;;;;;21.71;100.00;96597.53;5061369;28;20295;-55
2022/07/23 02:23:11;;;;;;;9.93;9.02;;;;;;;21.69;100.00;96610.38;5061165;28;20211;-56
2022/07/23 02:25:38;;;;;;;10.20;9.40;;;;;;;21.71;100.00;96605.63;5061709;28;20294;-57
2022/07/23 02:28:05;;;;;;;9.70;9.00;;;;;;;21.70;100.00;96606.66;5060763;28;20666;-59
2022/07/23 02:30:32;;;;;;;9.75;8.95;;;;;;;21.70;98.78;96611.19;5061100;28;20590;-57
2022/07/23 02:33:00;;;;;;;9.20;8.50;;;;;;;21.71;98.65;96612.84;5060716;28;20207;-59
2022/07/23 02:35:27;;;;;;;9.43;8.73;;;;;;;21.72;98.28;96609.94;5061338;28;20231;-58
2022/07/23 02:37:53;;;;;;;9.50;8.70;;;;;;;21.72;98.54;96609.09;5059109;28;20203;-51
2022/07/23 02:40:20;;;;;;;9.23;8.43;;;;;;;21.70;96.92;96612.03;5060618;28;20207;-51
2022/07/23 02:42:47;;;;;;;9.23;8.45;;;;;;;21.69;95.78;96615.75;5060224;28;20297;-51
2022/07/23 02:45:13;;;;;;;9.13;8.32;;;;;;;21.73;95.62;96627.75;5060205;28;20221;-50
2022/07/23 02:47:40;;;;;;;9.05;8.27;;;;;;;21.74;94.38;96639.34;5060633;28;20318;-52
2022/07/23 02:50:09;;;;;;;8.65;8.05;;;;;;;21.74;94.64;96650.94;5060813;28;20253;-58
2022/07/23 02:52:35;;;;;;;8.82;8.23;;;;;;;21.76;94.83;96650.72;5060940;28;20243;-58
2022/07/23 02:55:02;;;;;;;10.00;9.05;;;;;;;21.74;96.71;96624.03;5059935;28;20306;-57
2022/07/23 02:57:29;;;;;;;9.40;8.60;;;;;;;21.72;98.80;96615.31;5060587;28;20537;-56
2022/07/23 02:59:56;;;;;;;9.98;9.13;;;;;;;21.72;99.17;96626.09;5060452;28;20714;-56
2022/07/23 03:02:23;;;;;;;10.13;9.30;;;;;;;21.71;100.00;96624.44;5060734;28;20836;-56
2022/07/23 03:04:50;;;;;;;9.88;9.07;;;;;;;21.68;100.00;96632.94;5062282;28;20234;-58
2022/07/23 03:07:18;;;;;;;9.85;9.15;;;;;;;21.69;100.00;96648.03;5064083;28;20203;-57
2022/07/23 03:09:44;;;;;;;9.73;8.93;;;;;;;21.68;100.00;96680.56;5060696;28;20683;-57
2022/07/23 03:12:11;;;;;;;9.80;9.00;;;;;;;21.70;100.00;96711.63;5057501;28;20272;-58
2022/07/23 03:14:38;;;;;;;9.18;8.43;;;;;;;21.72;99.09;96690.69;5057627;28;20284;-57
2022/07/23 03:17:04;;;;;;;9.60;8.85;;;;;;;21.60;97.76;96675.41;5056976;28;20211;-54
2022/07/23 03:19:31;;;;;;;9.15;8.35;;;;;;;21.53;100.00;96648.53;5056867;28;20265;-54
2022/07/23 03:21:58;;;;;;;9.73;8.93;;;;;;;21.44;100.00;96632.81;5056755;28;20222;-54
2022/07/23 03:24:53;;;;;;;9.55;8.75;;;;;;;21.41;100.00;96617.91;5057218;28;20241;-55
2022/07/23 03:27:12;;;;;;;9.82;8.82;;;;;;;21.39;100.00;96616.47;5056387;28;20218;-55
2022/07/23 03:29:39;;;;;;;9.55;8.75;;;;;;;21.39;100.00;96620.00;5056606;28;20207;-54
2022/07/23 03:32:06;;;;;;;10.40;9.40;;;;;;;21.37;100.00;96622.06;5056492;28;20211;-54
2022/07/23 03:34:32;;;;;;;9.20;8.40;;;;;;;21.49;99.27;96635.69;5056425;28;20249;-57
2022/07/23 03:36:59;;;;;;;9.02;8.32;;;;;;;21.42;99.00;96614.19;5056690;28;20254;-58
2022/07/23 03:39:27;;;;;;;8.80;8.10;;;;;;;21.32;100.00;96619.19;5056406;28;20262;-56
2022/07/23 03:41:54;;;;;;;9.73;8.82;;;;;;;21.30;100.00;96611.31;5050086;28;20235;-56
2022/07/23 03:44:20;;;;;;;9.07;8.38;;;;;;;21.28;100.00;96623.34;5055794;28;20253;-57
2022/07/23 03:46:47;;;;;;;8.93;8.13;;;;;;;21.23;100.00;96631.19;5056228;28;20235;-51
2022/07/23 03:49:14;;;;;;;8.95;8.18;;;;;;;21.20;100.00;96626.25;5056496;28;20208;-51
2022/07/23 03:51:40;;;;;;;9.00;8.20;;;;;;;21.12;100.00;96637.22;5043755;28;20215;-52
2022/07/23 03:54:07;;;;;;;10.20;9.35;;;;;;;21.09;100.00;96622.28;5055728;28;20308;-50
2022/07/23 03:56:35;;;;;;;8.65;8.05;;;;;;;21.09;100.00;96632.22;5056060;28;20217;-52
2022/07/23 03:59:02;;;;;;;8.98;8.27;;;;;;;21.20;99.50;96643.22;5056119;28;20265;-52
2022/07/23 04:01:28;;;;;;;9.13;8.32;;;;;;;21.21;98.97;96661.00;5056124;28;20213;-51
2022/07/23 04:03:55;;;;;;;9.32;8.52;;;;;;;21.08;99.00;96668.22;5055784;28;20237;-51
2022/07/23 04:06:21;;;;;;;9.57;8.68;;;;;;;20.98;100.00;96686.63;5056307;28;20207;-52
2022/07/23 04:08:48;;;;;;;9.45;8.55;;;;;;;20.94;100.00;96680.03;5056212;28;20214;-52
2022/07/23 04:11:14;;;;;;;9.27;8.02;;;;;;;20.93;100.00;96676.50;5056229;28;20207;-53
2022/07/23 04:13:42;;;;;;;9.15;8.45;;;;;;;20.90;100.00;96673.41;5056080;28;20217;-51
2022/07/23 04:16:09;;;;;;;9.18;8.45;;;;;;;20.88;100.00;96678.16;5056064;28;20667;-51
2022/07/23 04:18:36;;;;;;;8.85;8.02;;;;;;;20.88;100.00;96668.22;5056211;28;20225;-53
2022/07/23 04:21:04;;;;;;;9.15;8.45;;;;;;;20.92;100.00;96674.84;5056227;28;20239;-51
2022/07/23 04:23:30;;;;;;;8.80;8.10;;;;;;;20.92;100.00;96682.06;5055452;28;20691;-51
2022/07/23 04:25:57;;;;;;;8.57;7.88;;;;;;;20.88;100.00;96695.09;5055689;28;20233;-53
2022/07/23 04:28:24;;;;;;;9.63;8.85;;;;;;;20.91;100.00;96712.66;5056104;28;20230;-51
2022/07/23 04:30:51;;;;;;;8.77;8.07;;;;;;;20.91;100.00;96707.28;5055907;28;20235;-51
2022/07/23 04:33:19;;;;;;;9.25;8.35;;;;;;;20.95;100.00;96711.22;5055766;28;20221;-51
2022/07/23 04:35:45;;;;;;;9.30;8.48;;;;;;;20.94;100.00;96723.03;5055593;28;20235;-53
2022/07/23 04:38:12;;;;;;;9.80;8.88;;;;;;;20.94;100.00;96728.41;5055618;28;20203;-52
2022/07/23 04:40:38;;;;;;;9.68;8.75;;;;;;;20.97;100.00;96754.88;5055162;28;20230;-51
2022/07/23 04:43:05;;;;;;;9.50;8.70;;;;;;;21.05;100.00;96762.72;5055450;28;20656;-53
2022/07/23 04:45:32;;;;;;;8.35;7.70;;;;;;;21.10;99.32;96771.03;5055666;28;20199;-53
2022/07/23 04:48:01;;;;;;;8.80;8.10;;;;;;;21.04;99.29;96766.47;5055592;28;20301;-53
2022/07/23 04:50:27;;;;;;;9.40;8.57;;;;;;;20.96;100.00;96777.41;5055517;28;20218;-52
2022/07/23 04:52:54;;;;;;;8.32;7.65;;;;;;;20.99;100.00;96779.69;5055572;28;20624;-52
2022/07/23 04:55:21;;;;;;;8.15;7.57;;;;;;;20.99;100.00;96785.06;5056221;28;20222;-52
2022/07/23 04:57:47;;;;;;;9.02;8.20;;;;;;;20.96;99.85;96763.97;5054614;28;20829;-51
2022/07/23 05:00:14;;;;;;;8.65;7.85;;;;;;;20.93;99.99;96761.72;5055115;28;20691;-52
2022/07/23 05:02:41;;;;;;;8.30;7.70;;;;;;;20.91;97.97;96755.69;5055284;28;20213;-52
2022/07/23 05:05:09;;;;;;;8.65;7.85;;;;;;;20.90;98.10;96764.81;5055277;28;20255;-51
2022/07/23 05:07:36;;;;;;;8.45;7.65;;;;;;;20.87;99.06;96768.72;5054977;28;20235;-52
2022/07/23 05:10:03;;;;;;;8.45;7.70;;;;;;;20.85;99.40;96771.63;5055183;28;20207;-53
2022/07/23 05:12:29;;;;;;;8.82;8.02;;;;;;;20.80;98.62;96766.00;5055121;28;20207;-52
2022/07/23 05:14:56;;;;;;;9.02;7.75;;;;;;;20.80;99.52;96771.38;5052453;28;20254;-50
2022/07/23 05:17:22;;;;;;;8.55;7.75;;;;;;;20.81;98.81;96778.44;5044304;28;20632;-50
2022/07/23 05:19:49;;;;;;;8.82;8.00;;;;;;;20.78;100.00;96781.53;5054905;28;20231;-50
2022/07/23 05:22:17;;;;;;;9.27;8.35;;;;;;;20.67;100.00;96776.75;5054943;28;20217;-51
2022/07/23 05:24:43;;;;;;;9.18;8.38;;;;;;;20.64;100.00;96782.53;5054585;28;20203;-51
2022/07/23 05:27:10;;;;;;;9.50;8.15;;;;;;;20.59;100.00;96801.09;5055081;28;20203;-51
2022/07/23 05:29:37;;;;;;;8.80;8.13;;;;;;;20.55;100.00;96794.47;5053935;28;20203;-52
2022/07/23 05:32:04;;;;;;;9.60;8.70;;;;;;;20.52;100.00;96794.03;5055008;28;20290;-50
2022/07/23 05:34:30;;;;;;;9.20;8.50;;;;;;;20.49;100.00;96789.91;5055169;28;20234;-50
2022/07/23 05:36:57;;;;;;;8.50;7.90;;;;;;;20.49;100.00;96787.22;5056760;28;20675;-51
2022/07/23 05:39:25;;;;;;;9.82;8.82;;;;;;;20.42;100.00;96762.19;5055153;28;20544;-51
2022/07/23 05:41:53;;;;;;;10.00;8.95;;;;;;;20.38;100.00;96736.75;5056092;28;20226;-51
2022/07/23 05:44:20;;;;;;;10.57;9.32;;;;;;;20.29;100.00;96717.31;5063576;28;20203;-51
2022/07/23 05:46:47;;;;;;;9.65;8.85;;;;;;;20.33;100.00;96733.88;5057084;28;20606;-53
2022/07/23 05:49:13;;;;;;;10.18;9.40;;;;;;;20.30;100.00;96720.81;5054484;28;20286;-53
2022/07/23 05:51:40;;;;;;;12.82;9.13;;;;;;;20.27;100.00;96716.69;5060194;28;20234;-52
2022/07/23 05:54:08;;;;;;;9.95;9.02;;;;;;;20.21;100.00;96733.56;5059547;28;20210;-54
2022/07/23 05:56:36;;;;;;;10.10;9.20;;;;;;;20.28;100.00;96749.75;5051041;28;20234;-53
2022/07/23 05:59:03;;;;;;;9.85;9.15;;;;;;;20.26;100.00;96747.22;5049319;28;20235;-51
2022/07/23 06:01:30;;;;;;;9.80;9.00;;;;;;;20.30;100.00;96761.09;5054409;28;20234;-52
2022/07/23 06:03:56;;;;;;;9.65;8.80;;;;;;;20.22;100.00;96755.88;5041071;28;20298;-53
2022/07/23 06:06:23;;;;;;;10.38;9.48;;;;;;;20.23;100.00;96784.38;5054111;28;20213;-51
2022/07/23 06:08:50;;;;;;;9.68;8.88;;;;;;;20.23;100.00;96773.63;5051004;28;20245;-53
2022/07/23 06:11:16;;;;;;;10.00;9.15;;;;;;;20.17;100.00;96788.72;5054566;28;20209;-51
2022/07/23 06:13:44;;;;;;;9.40;8.60;;;;;;;20.19;100.00;96793.91;5040778;28;20234;-53
2022/07/23 06:16:11;;;;;;;9.75;8.95;;;;;;;20.18;100.00;96805.66;5054242;28;20253;-52
2022/07/23 06:18:37;;;;;;;10.02;9.13;;;;;;;20.20;100.00;96807.09;5049058;28;20646;-53
2022/07/23 06:21:04;;;;;;;9.35;8.45;;;;;;;20.20;100.00;96811.63;5054189;28;20266;-52
2022/07/23 06:23:32;;;;;;;8.90;8.00;;;;;;;20.15;100.00;96843.66;5054207;28;20298;-51
2022/07/23 06:25:58;;;;;;;8.27;7.57;;;;;;;20.18;100.00;96845.94;5053497;28;20207;-52
2022/07/23 06:28:25;;;;;;;8.80;8.05;;;;;;;20.14;100.00;96844.66;5054981;28;20230;-52
2022/07/23 06:30:53;;;;;;;7.97;7.38;;;;;;;20.12;100.00;96830.63;5053875;28;20214;-51
2022/07/23 06:33:20;;;;;;;11.43;7.45;;;;;;;20.11;100.00;96834.31;5054215;28;20211;-51
2022/07/23 06:35:48;;;;;;;8.20;7.40;;;;;;;20.11;100.00;96828.97;5053853;28;20255;-53
2022/07/23 06:38:15;;;;;;;8.48;7.70;;;;;;;20.11;100.00;96818.22;5054028;28;20302;-52
2022/07/23 06:40:41;;;;;;;9.20;8.05;;;;;;;20.06;100.00;96821.47;5050547;28;20251;-52
2022/07/23 06:43:08;;;;;;;8.60;7.82;;;;;;;20.05;100.00;96814.44;5044339;28;20552;-53
2022/07/23 06:45:35;;;;;;;8.88;8.07;;;;;;;20.04;100.00;96825.41;5053677;28;20203;-54
2022/07/23 06:48:05;;;;;;;9.20;8.40;;;;;;;20.06;100.00;96828.72;5055842;28;20706;-52
2022/07/23 06:50:32;;;;;;;10.95;7.60;;;;;;;20.01;100.00;96823.94;5057748;28;20206;-52
2022/07/23 06:52:58;;;;;;;8.57;7.85;;;;;;;20.00;100.00;96841.06;5057610;28;20623;-52
2022/07/23 06:55:25;;;;;;;9.02;8.25;;;;;;;20.03;100.00;96842.53;5056775;28;20218;-52
2022/07/23 06:57:52;;;;;;;8.43;7.72;;;;;;;20.03;100.00;96853.25;5057248;28;20203;-52
2022/07/23 07:00:18;;;;;;;8.73;7.90;;;;;;;20.02;100.00;96851.59;5057209;28;20676;-52
2022/07/23 07:02:45;;;;;;;8.68;7.90;;;;;;;20.08;100.00;96846.28;5057433;28;20281;-51
2022/07/23 07:05:13;;;;;;;9.15;8.35;;;;;;;20.12;100.00;96852.09;5057217;28;20204;-51
2022/07/23 07:07:40;;;;;;;9.55;8.60;;;;;;;20.20;100.00;96859.97;5057477;28;20231;-52
2022/07/23 07:10:07;;;;;;;8.77;8.02;;;;;;;20.28;100.00;96862.53;5057404;28;20235;-51
2022/07/23 07:12:34;;;;;;;9.18;8.27;;;;;;;20.33;100.00;96860.91;5057030;28;20631;-51
2022/07/23 07:15:00;;;;;;;9.70;8.75;;;;;;;20.43;100.00;96875.84;5057290;28;20238;-52
2022/07/23 07:17:27;;;;;;;8.88;8.15;;;;;;;20.51;100.00;96879.19;5057479;28;20253;-52
2022/07/23 07:19:54;;;;;;;9.48;8.60;;;;;;;20.58;100.00;96893.47;5057290;28;20309;-51
2022/07/23 07:22:21;;;;;;;9.57;8.68;;;;;;;20.60;100.00;96878.00;5057292;28;20609;-52
2022/07/23 07:24:48;;;;;;;10.40;9.55;;;;;;;20.60;100.00;96875.31;5056907;28;20213;-53
2022/07/23 07:27:15;;;;;;;10.88;9.80;;;;;;;20.54;100.00;96870.75;5056793;28;20207;-52
2022/07/23 07:29:41;;;;;;;9.40;8.60;;;;;;;20.58;100.00;96863.13;5057042;28;20199;-52
2022/07/23 07:32:08;;;;;;;9.32;8.63;;;;;;;20.56;100.00;96871.38;5056689;28;20658;-53
2022/07/23 07:34:34;;;;;;;10.68;9.57;;;;;;;20.54;100.00;96886.88;5056746;28;20214;-52
2022/07/23 07:37:01;;;;;;;9.85;8.93;;;;;;;20.55;100.00;96890.38;5056707;28;20631;-52
2022/07/23 07:39:29;;;;;;;10.10;9.23;;;;;;;20.58;100.00;96888.09;5056923;28;20235;-53
2022/07/23 07:41:56;;;;;;;10.50;9.50;;;;;;;20.58;100.00;96893.47;5057015;28;20598;-52
2022/07/23 07:44:22;;;;;;;10.85;9.88;;;;;;;20.62;100.00;96885.84;5056864;28;20651;-51
2022/07/23 07:46:49;;;;;;;10.32;9.52;;;;;;;20.65;100.00;96882.78;5056747;28;20263;-53
2022/07/23 07:49:17;;;;;;;9.73;8.93;;;;;;;20.68;100.00;96891.28;5050477;28;20208;-52
2022/07/23 07:51:44;;;;;;;10.77;9.88;;;;;;;20.66;100.00;96887.94;5050839;28;20211;-54
2022/07/23 07:54:12;;;;;;;11.02;10.23;;;;;;;20.67;100.00;96878.88;5056651;28;20605;-53
2022/07/23 07:56:40;;;;;;;10.02;9.23;;;;;;;20.65;100.00;96864.78;5056704;28;20213;-53
2022/07/23 07:59:07;;;;;;;10.57;9.55;;;;;;;20.65;100.00;96864.78;5056474;28;20207;-54
2022/07/23 08:01:34;;;;;;;10.90;9.90;;;;;;;20.65;100.00;96859.41;5056466;28;20219;-53
2022/07/23 08:04:00;;;;;;;9.20;8.50;;;;;;;20.66;100.00;96854.88;5056409;28;20242;-52
2022/07/23 08:06:27;;;;;;;10.63;9.73;;;;;;;20.69;100.00;96839.16;5048161;28;20659;-52
2022/07/23 08:08:54;;;;;;;9.63;8.82;;;;;;;20.71;100.00;96826.38;5056684;28;20207;-51
2022/07/23 08:11:20;;;;;;;10.05;9.15;;;;;;;20.76;100.00;96831.16;5056534;28;20301;-53
2022/07/23 08:13:49;;;;;;;8.90;8.15;;;;;;;20.77;100.00;96849.75;5056212;28;20254;-53
2022/07/23 08:16:15;;;;;;;9.68;8.88;;;;;;;20.81;100.00;96850.19;5056566;28;20211;-52
2022/07/23 08:18:43;;;;;;;9.88;8.95;;;;;;;20.81;100.00;96853.69;5056581;28;20203;-55
2022/07/23 08:21:11;;;;;;;9.70;8.80;;;;;;;20.87;100.00;96856.63;5056460;28;20239;-52
2022/07/23 08:23:38;;;;;;;8.23;7.70;;;;;;;20.97;100.00;96868.66;5056330;28;20207;-53
2022/07/23 08:26:05;;;;;;;9.20;8.50;;;;;;;20.99;100.00;96874.63;5056257;28;20236;-55
2022/07/23 08:28:32;;;;;;;9.82;9.02;;;;;;;21.02;100.00;96881.47;5051679;28;20640;-52
2022/07/23 08:31:01;;;;;;;9.63;8.93;;;;;;;21.04;100.00;96879.41;5056228;28;20200;-53
2022/07/23 08:33:27;;;;;;;9.80;8.88;;;;;;;21.07;100.00;96873.63;5045912;28;20247;-54
2022/07/23 08:35:54;;;;;;;9.25;8.52;;;;;;;21.06;100.00;96877.34;5053570;28;20222;-51
2022/07/23 08:38:22;;;;;;;9.27;8.57;;;;;;;21.09;100.00;96885.84;5055849;28;20245;-54
2022/07/23 08:40:49;;;;;;;9.10;8.50;;;;;;;21.06;100.00;96874.66;5056122;28;20610;-52
2022/07/23 08:43:18;;;;;;;9.63;8.73;;;;;;;21.19;100.00;96888.16;5056066;28;20203;-53
2022/07/23 08:45:45;;;;;;;9.18;8.27;;;;;;;21.14;100.00;96885.25;5055261;28;20207;-53
2022/07/23 08:48:17;;;;;;;9.23;8.48;;;;;;;21.11;100.00;96885.69;5055836;28;20235;-54
2022/07/23 08:50:45;;;;;;;10.18;9.27;;;;;;;21.10;100.00;96883.97;5056123;28;20205;-52
2022/07/23 08:53:11;;;;;;;9.45;8.65;;;;;;;21.10;100.00;96875.91;5056099;28;20225;-53
2022/07/23 08:55:38;;;;;;;9.55;8.75;;;;;;;20.97;100.00;96884.78;5049669;28;20234;-53
2022/07/23 08:58:05;;;;;;;9.07;8.27;;;;;;;21.04;100.00;96900.94;5055804;28;20540;-52
2022/07/23 09:00:32;;;;;;;8.95;8.25;;;;;;;21.04;100.00;96887.50;5055841;28;20237;-52
2022/07/23 09:02:58;;;;;;;8.50;7.90;;;;;;;21.10;100.00;96878.59;5055523;28;20203;-52
2022/07/23 09:05:26;;;;;;;8.35;7.55;;;;;;;21.11;100.00;96875.75;5055948;28;20206;-53
2022/07/23 09:08:10;;;;;;;8.15;7.55;;;;;;;21.07;100.00;96866.41;5055421;28;20280;-53
2022/07/23 09:10:49;;;;;;;9.90;9.00;;;;;;;21.10;100.00;96873.22;5055320;28;20196;-53
2022/07/23 09:13:27;;;;;;;8.73;8.02;;;;;;;21.09;100.00;96872.38;5055788;28;20207;-52
2022/07/23 09:15:55;;;;;;;9.13;8.43;;;;;;;21.10;100.00;96866.03;5056153;28;20203;-52
2022/07/23 09:18:37;;;;;;;9.43;8.73;;;;;;;21.12;100.00;96872.00;5057239;28;20203;-53
2022/07/23 09:21:25;;;;;;;7.90;7.35;;;;;;;21.10;100.00;96876.78;5058239;28;20250;-52
2022/07/23 09:23:58;;;;;;;8.02;7.43;;;;;;;21.12;100.00;96863.94;5059739;28;20199;-53
2022/07/23 09:26:36;;;;;;;11.65;10.57;;;;;;;21.11;100.00;96864.16;5068013;28;20230;-52
2022/07/23 09:29:11;;;;;;;9.60;8.77;;;;;;;21.12;100.00;96871.19;5076024;28;20234;-54
2022/07/23 09:31:46;;;;;;;8.20;7.60;;;;;;;21.14;100.00;96872.66;5074986;28;20205;-53
2022/07/23 09:34:15;;;;;;;7.95;7.35;;;;;;;21.10;100.00;96873.22;5077934;28;20201;-53
2022/07/23 09:36:43;;;;;;;7.50;6.80;;;;;;;21.11;100.00;96869.53;5078539;28;20246;-53
2022/07/23 09:39:11;;;;;;;7.97;7.38;;;;;;;21.08;100.00;96886.84;5067454;28;20183;-54
2022/07/23 09:41:40;;;;;;;7.90;7.40;;;;;;;20.97;100.00;96883.94;5066688;28;20413;-53
2022/07/23 09:44:13;;;;;;;7.90;7.22;;;;;;;20.93;100.00;96882.69;5067819;28;20267;-54
2022/07/23 09:46:40;;;;;;;8.10;7.50;;;;;;;20.90;100.00;96880.41;5074219;28;20195;-54
2022/07/23 09:49:12;;;;;;;7.80;7.20;;;;;;;20.85;100.00;96897.13;5068905;28;20254;-55
2022/07/23 09:51:56;;;;;;;7.68;7.07;;;;;;;20.80;100.00;96888.81;5073340;28;20191;-55
2022/07/23 09:54:26;;;;;;;8.30;7.70;;;;;;;20.75;100.00;96877.88;5055681;28;20199;-54
2022/07/23 09:56:53;;;;;;;7.90;7.30;;;;;;;20.71;100.00;96863.16;5065888;28;20222;-54
2022/07/23 09:59:24;;;;;;;8.00;7.20;;;;;;;20.73;100.00;96869.16;5070930;28;20214;-55
2022/07/23 10:01:51;;;;;;;8.25;7.47;;;;;;;20.86;100.00;96901.50;5063469;28;20215;-54
2022/07/23 10:04:18;;;;;;;7.75;7.15;;;;;;;20.95;100.00;96894.06;5054550;28;20211;-53
2022/07/23 10:06:46;;;;;;;8.57;7.88;;;;;;;20.97;100.00;96894.69;5053984;28;20659;-54
2022/07/23 10:09:17;;;;;;;8.43;7.72;;;;;;;20.99;100.00;96890.78;5054164;28;20242;-52
2022/07/23 10:11:44;;;;;;;8.00;7.35;;;;;;;20.99;100.00;96893.47;5054719;28;20253;-52
2022/07/23 10:14:10;;;;;;;8.27;7.55;;;;;;;21.04;100.00;96891.00;5054191;28;20211;-53
2022/07/23 10:16:38;;;;;;;8.07;7.28;;;;;;;21.01;100.00;96896.75;5054111;28;20215;-53
2022/07/23 10:19:05;;;;;;;8.50;7.90;;;;;;;21.04;100.00;96895.56;5054332;28;20234;-54
2022/07/23 10:21:41;;;;;;;7.78;7.20;;;;;;;21.15;100.00;96895.00;5056219;28;20233;-53
2022/07/23 10:24:18;;;;;;;8.30;7.55;;;;;;;21.14;100.00;96906.78;5051540;28;20241;-53
2022/07/23 10:26:51;;;;;;;8.07;7.47;;;;;;;21.12;100.00;96892.69;5046835;28;20199;-51
2022/07/23 10:29:25;;;;;;;8.35;7.65;;;;;;;21.06;100.00;96880.88;5058498;28;20215;-52
2022/07/23 10:31:59;;;;;;;8.98;8.27;;;;;;;21.10;100.00;96883.97;5058363;28;20226;-52
2022/07/23 10:34:32;;;;;;;8.55;7.95;;;;;;;21.14;100.00;96894.16;5058289;28;20226;-53
2022/07/23 10:37:02;;;;;;;8.40;7.68;;;;;;;21.17;100.00;96906.38;5057865;28;20207;-54
2022/07/23 10:39:33;;;;;;;8.75;8.05;;;;;;;21.19;100.00;96904.28;5058348;28;20238;-53
2022/07/23 10:42:10;;;;;;;8.95;8.23;;;;;;;21.19;100.00;96905.13;5058303;28;20254;-53
2022/07/23 10:44:40;;;;;;;8.85;8.15;;;;;;;21.23;100.00;96894.78;5058125;28;20195;-53
2022/07/23 10:49:48;;;;;;;8.88;8.18;;;;;;;21.30;100.00;96884.88;5048897;28;20211;-53
2022/07/23 10:52:23;;;;;;;8.38;7.78;;;;;;;21.35;100.00;96890.47;5056992;28;20231;-53
2022/07/23 10:54:53;;;;;;;9.43;8.70;;;;;;;21.38;100.00;96882.00;5057783;28;20203;-54
2022/07/23 10:57:23;;;;;;;9.23;8.48;;;;;;;21.34;100.00;96897.72;5056362;28;20207;-53
2022/07/23 11:00:23;;;;;;;10.13;9.32;;;;;;;21.45;100.00;96884.69;5057597;28;20265;-53
2022/07/23 11:02:50;;;;;;;9.52;8.55;;;;;;;21.41;100.00;96889.66;5034762;28;20239;-52
2022/07/23 11:05:18;;;;;;;9.02;8.38;;;;;;;21.51;100.00;96883.88;5051907;28;20273;-55
2022/07/23 11:08:24;;;;;;;9.38;8.68;;;;;;;21.62;100.00;96889.47;5057541;28;20210;-52
2022/07/23 11:10:58;;;;;;;9.55;8.77;;;;;;;21.83;100.00;96891.13;5047922;28;20202;-54
2022/07/23 11:13:48;;;;;;;9.23;8.43;;;;;;;22.12;100.00;96887.22;5056837;28;20213;-52
2022/07/23 11:16:21;;;;;;;8.90;8.20;;;;;;;22.30;100.00;96882.84;5056592;28;20662;-53
2022/07/23 11:18:59;;;;;;;9.07;8.38;;;;;;;22.59;100.00;96888.78;5055673;28;20301;-54
2022/07/23 11:21:44;;;;;;;8.90;8.20;;;;;;;23.03;100.00;96879.91;5056502;28;20238;-52
2022/07/23 11:24:11;;;;;;;9.55;8.65;;;;;;;23.43;100.00;96873.28;5054891;28;20214;-53
2022/07/23 11:26:50;;;;;;;8.50;7.90;;;;;;;23.82;100.00;96871.31;5050014;28;20636;-52
2022/07/23 11:29:45;;;;;;;8.60;7.90;;;;;;;24.04;97.78;96867.19;5056489;28;20238;-53
2022/07/23 11:32:39;;;;;;;8.55;7.95;;;;;;;24.17;98.05;96865.22;5056410;28;20284;-53
2022/07/23 11:35:21;;;;;;;8.30;7.70;;;;;;;24.41;96.85;96865.41;5056818;28;20203;-53